Terminal Aerodrome Forecast
Issued by NWS

Home | Current Version | Previous Version | Text Only | Print | Product List | Glossary On
Versions: 1 2 3 4 5 6 7 8 9 10 11 12 13 14 15 16 17 18 19 20 21 22 23 24 25 26 27 28 29 30 31 32 33 34 35
568
FTUS43 KDLH 242332
TAFHIB
TAF
KHIB 242332Z 2500/2524 13013KT P6SM SCT050
     FM250400 VRB03KT P6SM SKC
     FM250800 12004KT P6SM BKN010
     FM251500 14007KT P6SM BKN025
     FM251700 15009G16KT P6SM BKN050=

USA.gov is the U.S. government's official web portal to all federal, state and local government web resources and services.